Time;durP1;ratioP1;P1;durP2;ratioP2;P2;SDS_P1;SDS_P2;PMS_P1;PMS_P2;Temp;Humidity;BMP_temperature;BMP_pressure;BME280_temperature;BME280_humidity;BME280_pressure;Samples;Min_cycle;Max_cycle;Signal;HPM_P1;HPM_P2
2022/03/27 00:01:37;;;;;;;9.32;6.70;;;;;;;13.25;35.21;100758.91;4348809;32;33983;-86
2022/03/27 00:04:07;;;;;;;8.38;5.97;;;;;;;13.52;34.71;100757.25;4344917;32;33958;-85
2022/03/27 00:06:55;;;;;;;9.05;6.32;;;;;;;13.24;35.18;100747.34;4370947;32;36123;-85
2022/03/27 00:09:27;;;;;;;8.57;6.35;;;;;;;13.49;34.82;100754.03;4369605;32;34208;-84
2022/03/27 00:11:58;;;;;;;7.53;6.82;;;;;;;13.58;34.78;100756.69;4369475;32;34052;-85
2022/03/27 00:14:28;;;;;;;6.70;5.87;;;;;;;13.60;34.68;100752.03;4357323;32;34070;-84
2022/03/27 00:16:57;;;;;;;6.22;5.20;;;;;;;13.59;34.78;100749.53;4357343;32;34462;-85
2022/03/27 00:19:45;;;;;;;17.80;6.50;;;;;;;13.68;34.37;100746.84;4371477;32;34128;-84
2022/03/27 00:22:29;;;;;;;11.35;5.82;;;;;;;13.55;34.61;100754.31;4357745;32;33573;-85
2022/03/27 00:25:20;;;;;;;5.95;5.30;;;;;;;13.62;34.78;100759.94;4371535;32;33287;-85
2022/03/27 00:28:04;;;;;;;10.77;6.72;;;;;;;13.62;34.95;100754.56;4370782;32;34235;-85
2022/03/27 00:30:34;;;;;;;11.05;6.62;;;;;;;13.61;34.83;100751.03;4369272;32;33904;-85
2022/03/27 00:33:10;;;;;;;12.70;5.57;;;;;;;13.70;34.52;100762.75;4369050;32;33016;-85
2022/03/27 00:35:58;;;;;;;8.02;6.70;;;;;;;13.86;34.43;100755.00;4371216;32;33268;-85
2022/03/27 00:38:27;;;;;;;12.15;7.18;;;;;;;13.89;34.39;100766.25;4370121;32;35271;-85
2022/03/27 00:40:58;;;;;;;5.68;4.45;;;;;;;14.01;34.32;100762.44;4358873;32;33053;-83
2022/03/27 00:43:48;;;;;;;8.32;5.90;;;;;;;14.04;33.85;100756.81;4373564;32;33012;-83
2022/03/27 00:46:16;;;;;;;11.35;6.10;;;;;;;14.03;34.03;100762.28;4371049;32;33366;-83
2022/03/27 00:49:01;;;;;;;6.03;5.45;;;;;;;13.94;34.02;100764.00;4359621;32;33653;-83
2022/03/27 00:51:49;;;;;;;10.02;6.10;;;;;;;13.95;34.09;100760.34;4384003;32;35199;-83
2022/03/27 00:54:20;;;;;;;10.07;5.95;;;;;;;14.08;33.61;100765.41;4370542;32;32049;-83
2022/03/27 00:57:08;;;;;;;10.85;6.62;;;;;;;13.90;33.97;100770.62;4372978;32;33813;-83
2022/03/27 00:59:38;;;;;;;6.68;5.85;;;;;;;13.80;34.26;100768.94;4370729;32;34418;-82
2022/03/27 01:02:10;;;;;;;8.25;6.18;;;;;;;14.28;33.19;100767.06;4384348;32;35109;-83
2022/03/27 01:04:44;;;;;;;7.28;6.57;;;;;;;14.15;33.49;100763.84;4358308;32;32496;-82
2022/03/27 01:07:33;;;;;;;11.80;7.18;;;;;;;14.12;33.73;100762.28;4362891;32;34802;-85
2022/03/27 01:10:03;;;;;;;7.95;5.95;;;;;;;13.54;34.82;100767.78;4370784;32;35246;-84
2022/03/27 01:12:38;;;;;;;5.47;4.97;;;;;;;13.41;34.95;100769.91;4370680;32;33474;-85
2022/03/27 01:15:30;;;;;;;5.90;5.18;;;;;;;13.35;35.20;100779.31;4370374;32;32976;-85
2022/03/27 01:18:03;;;;;;;12.07;7.87;;;;;;;13.14;35.72;100778.56;4371152;32;32626;-83
2022/03/27 01:20:35;;;;;;;11.82;8.57;;;;;;;13.02;36.07;100782.31;4359849;32;34741;-85
2022/03/27 01:23:10;;;;;;;7.47;6.07;;;;;;;13.41;35.29;100780.59;4358600;32;34483;-85
2022/03/27 01:25:59;;;;;;;17.77;6.53;;;;;;;13.20;35.61;100782.53;4360188;32;32572;-84
2022/03/27 01:28:29;;;;;;;10.43;6.32;;;;;;;13.03;35.94;100793.88;4370523;32;34340;-83
2022/03/27 01:30:57;;;;;;;8.15;6.62;;;;;;;12.98;36.08;100786.25;4357821;32;34131;-84
2022/03/27 01:33:26;;;;;;;13.98;7.80;;;;;;;12.83;36.15;100792.06;4369713;32;33298;-84
2022/03/27 01:36:10;;;;;;;9.65;6.45;;;;;;;12.71;36.44;100780.63;4372022;32;33002;-86
2022/03/27 01:38:56;;;;;;;8.30;6.78;;;;;;;12.88;36.10;100785.34;4371606;32;33596;-85
2022/03/27 01:41:25;;;;;;;11.55;6.95;;;;;;;12.83;36.33;100784.88;4370203;32;35512;-84
2022/03/27 01:43:54;;;;;;;5.95;5.37;;;;;;;12.82;36.23;100787.69;4357388;32;33241;-84
2022/03/27 01:46:23;;;;;;;16.62;6.85;;;;;;;13.02;35.71;100789.50;4369983;32;32395;-84
2022/03/27 01:49:04;;;;;;;7.53;5.85;;;;;;;13.06;35.64;100793.59;4384083;32;33257;-84
2022/03/27 01:51:38;;;;;;;;;;;;;;;13.01;35.75;100794.00;4358167;32;34502;-85
2022/03/27 01:54:07;;;;;;;14.23;6.75;;;;;;;13.08;35.55;100797.81;4370105;32;36074;-84
2022/03/27 01:56:50;;;;;;;6.00;5.55;;;;;;;13.10;35.37;100805.69;4355593;32;33029;-84
2022/03/27 01:59:35;;;;;;;5.70;5.20;;;;;;;13.09;35.46;100806.66;4372393;32;33294;-83
2022/03/27 02:02:03;;;;;;;15.43;7.82;;;;;;;12.85;36.08;100808.81;4357708;32;34451;-84
2022/03/27 02:04:36;;;;;;;7.72;6.65;;;;;;;12.78;36.21;100800.50;4358851;32;34728;-84
2022/03/27 02:07:07;;;;;;;14.32;7.32;;;;;;;12.80;36.25;100811.00;4358995;32;32964;-85
2022/03/27 02:09:37;;;;;;;10.10;6.55;;;;;;;12.63;36.85;100803.63;4370286;32;34383;-85
2022/03/27 02:12:09;;;;;;;7.43;6.07;;;;;;;12.87;36.55;100806.84;4370698;32;34565;-84
2022/03/27 02:14:39;;;;;;;7.35;6.65;;;;;;;12.75;36.45;100807.91;4369961;32;34000;-85
2022/03/27 02:17:11;;;;;;;11.48;6.40;;;;;;;12.81;36.19;100802.03;4359261;32;33052;-84
2022/03/27 02:19:40;;;;;;;8.60;6.78;;;;;;;12.64;36.90;100803.50;4358388;32;33870;-85
2022/03/27 02:22:08;;;;;;;7.47;6.65;;;;;;;12.62;36.89;100802.78;4370942;32;35871;-85
2022/03/27 02:24:37;;;;;;;8.07;5.87;;;;;;;12.70;36.79;100808.31;4383965;32;34108;-85
2022/03/27 02:27:06;;;;;;;7.78;7.10;;;;;;;12.62;37.01;100812.63;4370429;32;33472;-87
2022/03/27 02:29:35;;;;;;;7.97;7.25;;;;;;;12.63;36.96;100817.81;4383830;32;33233;-85
2022/03/27 02:32:10;;;;;;;8.65;6.95;;;;;;;12.75;36.80;100808.75;4382168;32;34538;-85
2022/03/27 02:34:57;;;;;;;9.80;7.72;;;;;;;12.72;36.93;100809.03;4383769;32;34539;-85
2022/03/27 02:37:25;;;;;;;6.30;5.80;;;;;;;12.85;36.54;100814.16;4370310;32;33391;-85
2022/03/27 02:39:57;;;;;;;9.02;7.70;;;;;;;12.50;37.51;100827.88;4369507;32;32825;-84
2022/03/27 02:42:33;;;;;;;8.18;7.22;;;;;;;12.76;36.71;100829.13;4370878;32;34360;-84
2022/03/27 02:45:05;;;;;;;23.98;6.82;;;;;;;12.77;36.88;100825.47;4370363;32;34337;-85
2022/03/27 02:47:40;;;;;;;7.43;6.65;;;;;;;12.82;36.72;100831.28;4371025;32;32406;-84
2022/03/27 02:50:10;;;;;;;35.38;7.50;;;;;;;12.66;37.21;100830.91;4370367;32;34776;-84
2022/03/27 02:52:42;;;;;;;11.02;8.25;;;;;;;12.80;37.13;100837.72;4369648;32;35428;-84
2022/03/27 02:55:30;;;;;;;7.40;6.70;;;;;;;12.75;37.55;100829.28;4358802;32;33648;-84
2022/03/27 02:58:18;;;;;;;9.00;5.70;;;;;;;12.70;37.75;100836.81;4371939;32;34108;-83
2022/03/27 03:00:48;;;;;;;12.35;8.30;;;;;;;12.38;38.60;100838.75;4369529;32;34677;-85
2022/03/27 03:03:53;;;;;;;13.65;9.13;;;;;;;12.30;38.73;100834.03;4360453;32;34618;-85
2022/03/27 03:06:38;;;;;;;10.85;6.53;;;;;;;12.65;38.15;100826.53;4371261;32;34035;-87
2022/03/27 03:09:24;;;;;;;21.08;7.72;;;;;;;12.65;38.05;100829.22;4371772;32;33052;-85
2022/03/27 03:11:56;;;;;;;8.30;7.57;;;;;;;12.37;38.71;100835.22;4369648;32;34691;-86
2022/03/27 03:14:29;;;;;;;6.85;6.20;;;;;;;12.36;38.51;100840.69;4382589;32;34671;-84
2022/03/27 03:17:00;;;;;;;10.13;7.70;;;;;;;12.61;38.22;100843.81;4369676;32;34986;-85
2022/03/27 03:19:32;;;;;;;10.93;7.10;;;;;;;12.60;37.91;100839.47;4358567;32;33752;-84
2022/03/27 03:22:01;;;;;;;9.80;7.07;;;;;;;12.57;37.67;100844.22;4370453;32;33759;-84
2022/03/27 03:24:31;;;;;;;7.28;6.57;;;;;;;12.84;37.31;100849.84;4357480;32;34048;-84
2022/03/27 03:27:07;;;;;;;7.45;6.45;;;;;;;12.63;37.92;100857.00;4370139;32;33966;-84
2022/03/27 03:29:35;;;;;;;10.60;6.05;;;;;;;12.48;37.83;100866.34;4357205;32;32666;-85
2022/03/27 03:32:05;;;;;;;7.32;6.78;;;;;;;12.58;37.83;100861.91;4357399;32;34314;-85
2022/03/27 03:34:41;;;;;;;7.80;6.53;;;;;;;12.64;37.72;100864.03;4383708;32;35658;-84
2022/03/27 03:37:12;;;;;;;10.73;7.40;;;;;;;12.64;37.89;100864.03;4357400;32;34489;-86
2022/03/27 03:39:40;;;;;;;17.50;8.60;;;;;;;12.82;37.58;100870.47;4369687;32;32874;-84
2022/03/27 03:42:24;;;;;;;17.75;8.77;;;;;;;12.87;37.40;100868.25;4371625;32;34550;-84
2022/03/27 03:44:53;;;;;;;9.00;8.07;;;;;;;13.11;36.85;100872.34;4357461;32;34340;-85
2022/03/27 03:47:40;;;;;;;17.70;8.38;;;;;;;13.02;37.01;100877.66;4372541;32;34546;-86
2022/03/27 03:50:13;;;;;;;8.40;5.95;;;;;;;12.91;37.36;100877.69;4369544;32;33430;-85
2022/03/27 03:52:43;;;;;;;9.27;8.30;;;;;;;13.10;36.83;100872.47;4383571;32;33526;-85
2022/03/27 03:55:26;;;;;;;10.90;7.05;;;;;;;13.07;36.81;100878.94;4371763;32;34641;-85
2022/03/27 03:58:10;;;;;;;9.15;8.02;;;;;;;12.96;37.18;100883.53;4369646;32;33550;-84
2022/03/27 04:00:47;;;;;;;8.88;7.22;;;;;;;13.12;36.71;100889.22;4370959;32;35191;-84
2022/03/27 04:03:23;;;;;;;7.37;6.75;;;;;;;12.87;37.31;100889.62;4357952;32;34028;-85
2022/03/27 04:06:10;;;;;;;7.72;6.35;;;;;;;12.78;37.63;100899.28;4371770;32;35044;-84
2022/03/27 04:08:42;;;;;;;7.97;7.18;;;;;;;12.96;37.44;100896.88;4370167;32;34650;-85
2022/03/27 04:11:16;;;;;;;14.32;7.00;;;;;;;12.81;37.70;100900.81;4369195;32;33952;-84
2022/03/27 04:14:00;;;;;;;15.43;8.88;;;;;;;12.64;38.29;100902.28;4382573;32;33746;-85
2022/03/27 04:16:30;;;;;;;12.60;7.05;;;;;;;12.50;38.64;100904.44;4356769;32;34754;-85
2022/03/27 04:19:06;;;;;;;9.43;6.57;;;;;;;12.43;39.07;100906.78;4358848;32;35240;-85
2022/03/27 04:21:39;;;;;;;6.30;5.70;;;;;;;12.15;39.86;100912.72;4369772;32;32574;-84
2022/03/27 04:24:09;;;;;;;12.65;9.30;;;;;;;12.20;39.94;100915.84;4369635;32;33859;-84
2022/03/27 04:26:53;;;;;;;10.38;5.87;;;;;;;11.99;40.38;100920.28;4371019;32;35683;-83
2022/03/27 04:29:23;;;;;;;11.07;8.50;;;;;;;11.99;40.39;100930.94;4369751;32;33889;-84
2022/03/27 04:31:53;;;;;;;8.88;7.95;;;;;;;12.16;40.02;100926.88;4356855;32;32622;-83
2022/03/27 04:34:21;;;;;;;8.82;6.78;;;;;;;12.07;40.28;100936.50;4383142;32;34619;-84
2022/03/27 04:37:17;;;;;;;8.75;6.40;;;;;;;12.17;40.25;100942.78;4382737;32;35521;-85
2022/03/27 04:40:22;;;;;;;8.32;7.57;;;;;;;11.55;41.56;100954.16;4373480;32;33941;-84
2022/03/27 04:43:00;;;;;;;10.35;7.35;;;;;;;12.07;40.43;100957.00;4359321;32;32319;-85
2022/03/27 04:45:40;;;;;;;10.68;8.43;;;;;;;12.10;40.40;100962.94;4369714;32;32540;-83
2022/03/27 04:48:12;;;;;;;11.52;7.45;;;;;;;12.24;40.06;100973.31;4368541;32;34389;-83
2022/03/27 04:50:40;;;;;;;15.02;8.20;;;;;;;12.14;40.59;100972.37;4368470;32;33662;-83
2022/03/27 04:53:27;;;;;;;13.95;8.68;;;;;;;12.16;40.76;100974.91;4360892;32;33291;-85
2022/03/27 04:56:10;;;;;;;7.70;6.40;;;;;;;12.32;40.45;100970.88;4370949;32;34470;-84
2022/03/27 04:58:40;;;;;;;7.85;5.85;;;;;;;12.45;40.37;100979.53;4369271;32;34253;-85
2022/03/27 05:01:15;;;;;;;17.02;8.93;;;;;;;12.11;41.14;100979.78;4357260;32;34419;-85
2022/03/27 05:04:00;;;;;;;12.10;5.85;;;;;;;12.36;40.46;100990.97;4370279;32;32207;-86
2022/03/27 05:06:36;;;;;;;12.23;8.55;;;;;;;12.46;40.38;100993.75;4366829;32;33035;-85
2022/03/27 05:09:20;;;;;;;14.10;5.65;;;;;;;12.69;39.64;101001.53;4369858;32;34637;-86
2022/03/27 05:11:47;;;;;;;12.75;7.68;;;;;;;12.55;40.30;100998.31;4341380;32;34008;-86
2022/03/27 05:14:16;;;;;;;8.07;6.70;;;;;;;12.72;40.31;100995.94;4366142;32;35110;-86
2022/03/27 05:16:51;;;;;;;10.18;7.97;;;;;;;12.47;41.08;101006.13;4366203;32;33301;-86
2022/03/27 05:19:19;;;;;;;6.57;5.62;;;;;;;12.64;40.83;101003.72;4366348;32;35402;-85
2022/03/27 05:22:03;;;;;;;8.82;7.03;;;;;;;12.61;40.60;100995.12;4355446;32;33635;-87
2022/03/27 05:24:39;;;;;;;11.55;7.65;;;;;;;13.13;39.77;101005.81;4353109;32;32497;-86
2022/03/27 05:27:22;;;;;;;10.55;6.62;;;;;;;13.01;40.13;101010.37;4357763;32;33713;-85
2022/03/27 05:29:50;;;;;;;23.75;7.62;;;;;;;12.71;40.82;101015.59;4368242;32;34586;-86
2022/03/27 05:32:18;;;;;;;7.05;6.37;;;;;;;12.55;41.11;101014.34;4356363;32;33403;-86
2022/03/27 05:34:54;;;;;;;9.27;8.38;;;;;;;12.85;40.54;101015.28;4368381;32;33540;-86
2022/03/27 05:37:43;;;;;;;11.73;8.00;;;;;;;12.98;40.20;101020.47;4357435;32;32452;-87
2022/03/27 05:40:27;;;;;;;12.05;6.87;;;;;;;12.82;40.54;101023.56;4357544;32;34389;-83
2022/03/27 05:42:58;;;;;;;9.93;6.70;;;;;;;12.63;41.37;101038.56;4368007;32;34674;-84
2022/03/27 05:45:28;;;;;;;11.43;4.87;;;;;;;12.27;42.05;101047.78;4356170;32;32487;-87
2022/03/27 05:48:16;;;;;;;9.52;7.35;;;;;;;12.32;41.29;101040.25;4367870;32;33707;-84
2022/03/27 05:50:46;;;;;;;7.43;6.80;;;;;;;12.40;41.05;101037.78;4380360;32;34387;-84
2022/03/27 05:53:15;;;;;;;7.40;6.45;;;;;;;12.52;40.71;101042.12;4368396;32;34352;-83
2022/03/27 05:55:43;;;;;;;15.60;6.93;;;;;;;12.55;40.84;101052.53;4368139;32;33377;-84
2022/03/27 05:58:11;;;;;;;19.37;7.97;;;;;;;12.40;41.05;101061.78;4355813;32;32951;-87
2022/03/27 06:00:41;;;;;;;5.97;4.85;;;;;;;12.53;41.17;101062.50;4368000;32;34800;-86
2022/03/27 06:03:10;;;;;;;9.93;7.90;;;;;;;12.56;41.13;101062.25;4368286;32;35069;-86
2022/03/27 06:05:43;;;;;;;5.85;5.32;;;;;;;12.84;40.79;101068.84;4368025;32;32305;-86
2022/03/27 06:08:26;;;;;;;13.20;5.70;;;;;;;12.90;40.72;101081.66;4368070;32;33066;-85
2022/03/27 06:11:02;;;;;;;6.68;4.57;;;;;;;12.92;40.64;101080.56;4356522;32;34735;-87
2022/03/27 06:13:30;;;;;;;7.35;5.87;;;;;;;12.91;41.10;101089.56;4368203;32;35042;-86
2022/03/27 06:15:58;;;;;;;11.25;5.62;;;;;;;12.86;41.31;101091.75;4355731;32;31490;-88
2022/03/27 06:18:28;;;;;;;5.12;4.50;;;;;;;12.95;41.18;101093.69;4368227;32;33231;-86
2022/03/27 06:21:11;;;;;;;10.52;4.28;;;;;;;12.92;41.20;101093.09;4368656;32;35260;-87
2022/03/27 06:23:40;;;;;;;3.22;2.92;;;;;;;13.29;40.71;101092.56;4367807;32;34398;-86
2022/03/27 06:26:11;;;;;;;6.18;5.30;;;;;;;13.49;39.95;101096.22;4369702;32;33376;-86
2022/03/27 06:28:47;;;;;;;6.95;3.90;;;;;;;13.61;39.79;101100.50;4368678;32;33930;-85
2022/03/27 06:31:19;;;;;;;5.07;4.68;;;;;;;13.39;40.23;101111.34;4368181;32;34585;-85
2022/03/27 06:33:50;;;;;;;5.47;5.05;;;;;;;13.06;41.63;101107.00;4368102;32;34642;-86
2022/03/27 06:36:37;;;;;;;5.30;4.80;;;;;;;13.30;40.57;101102.25;4368124;32;33594;-86
2022/03/27 06:39:09;;;;;;;6.10;4.40;;;;;;;13.49;40.23;101105.06;4368407;32;33955;-85
2022/03/27 06:41:37;;;;;;;8.07;4.40;;;;;;;13.67;40.47;101108.00;4367724;32;35356;-86
2022/03/27 06:44:09;;;;;;;5.70;4.78;;;;;;;13.83;40.24;101111.87;4367948;32;33916;-88
2022/03/27 06:46:38;;;;;;;5.25;4.55;;;;;;;13.98;39.40;101121.22;4367763;32;32006;-87
2022/03/27 06:49:06;;;;;;;6.55;4.60;;;;;;;14.09;39.37;101120.31;4367829;32;34796;-83
2022/03/27 06:51:35;;;;;;;6.45;5.50;;;;;;;14.37;39.06;101112.41;4352020;32;33909;-85
2022/03/27 06:54:04;;;;;;;8.70;5.15;;;;;;;14.09;39.55;101112.28;4366254;32;34741;-84
2022/03/27 06:56:33;;;;;;;4.45;4.07;;;;;;;14.29;38.72;101114.94;4353970;32;32712;-84
2022/03/27 06:59:03;;;;;;;13.30;3.45;;;;;;;14.00;39.51;101119.28;4354370;32;34079;-86
2022/03/27 07:04:33;;;;;;;11.12;4.05;;;;;;;14.79;37.94;101113.91;4366531;32;34406;-86
2022/03/27 07:07:21;;;;;;;3.33;3.12;;;;;;;14.69;38.65;101127.31;4355620;32;32468;-87
2022/03/27 07:10:05;;;;;;;6.57;3.78;;;;;;;14.91;37.87;101123.50;4370625;32;33287;-85
2022/03/27 07:12:53;;;;;;;3.05;2.85;;;;;;;14.71;38.38;101128.00;4371329;32;34728;-87
2022/03/27 07:15:24;;;;;;;2.50;2.40;;;;;;;14.59;38.64;101131.78;4369440;32;34809;-85
2022/03/27 07:17:55;;;;;;;4.53;3.75;;;;;;;14.56;38.70;101131.22;4357463;32;33936;-86
2022/03/27 07:20:45;;;;;;;10.88;3.42;;;;;;;14.73;38.55;101122.50;4370537;32;33217;-87
2022/03/27 07:23:28;;;;;;;5.85;3.75;;;;;;;15.02;37.96;101118.84;4371032;32;34607;-81
2022/03/27 07:26:04;;;;;;;4.53;3.67;;;;;;;15.39;37.55;101116.34;4346398;32;34172;-83
2022/03/27 07:28:31;;;;;;;5.40;4.18;;;;;;;14.80;38.58;101120.94;4368818;32;32774;-82
2022/03/27 07:31:19;;;;;;;11.65;3.75;;;;;;;15.15;38.27;101127.47;4371230;32;33642;-83
2022/03/27 07:33:50;;;;;;;3.85;3.55;;;;;;;15.22;37.92;101125.91;4369713;32;35452;-84
2022/03/27 07:36:24;;;;;;;4.45;4.05;;;;;;;15.48;36.92;101131.59;4369245;32;34103;-87
2022/03/27 07:38:54;;;;;;;6.75;4.50;;;;;;;15.22;37.81;101142.00;4357146;32;33369;-86
2022/03/27 07:41:23;;;;;;;4.15;3.75;;;;;;;15.58;36.83;101127.06;4356602;32;34257;-86
2022/03/27 07:43:54;;;;;;;5.95;5.32;;;;;;;15.77;36.73;101135.88;4356355;32;33290;-84
2022/03/27 07:46:37;;;;;;;8.60;4.20;;;;;;;15.80;36.25;101137.44;4371105;32;34835;-85
2022/03/27 07:49:08;;;;;;;4.35;4.05;;;;;;;15.99;36.29;101137.38;4380051;32;33006;-84
2022/03/27 07:51:36;;;;;;;5.30;4.80;;;;;;;15.93;36.74;101140.62;4368528;32;32875;-83
2022/03/27 07:54:05;;;;;;;7.68;4.25;;;;;;;15.44;36.89;101144.44;4356133;32;34811;-82
2022/03/27 07:56:36;;;;;;;8.85;3.05;;;;;;;15.72;37.15;101148.91;4382610;32;33836;-86
2022/03/27 07:59:09;;;;;;;2.67;2.37;;;;;;;15.92;36.81;101142.50;4369692;32;32889;-86
2022/03/27 08:01:40;;;;;;;5.45;4.30;;;;;;;16.06;36.49;101141.19;4345330;32;33627;-86
2022/03/27 08:04:12;;;;;;;5.97;4.53;;;;;;;16.25;36.47;101136.56;4369451;32;35030;-86
2022/03/27 08:06:43;;;;;;;3.72;3.42;;;;;;;16.53;35.43;101142.84;4370196;32;33952;-92
2022/03/27 08:09:19;;;;;;;5.28;3.35;;;;;;;15.80;37.51;101156.22;4370068;32;33799;-91
2022/03/27 08:12:09;;;;;;;;;;;;;;;15.80;37.52;101143.66;4371200;32;33524;-91
2022/03/27 08:14:48;;;;;;;3.80;3.50;;;;;;;15.68;37.82;101135.94;4370350;32;35157;-93
2022/03/27 08:17:20;;;;;;;2.87;2.65;;;;;;;15.78;37.89;101134.91;4383839;32;33843;-92
2022/03/27 08:19:56;;;;;;;19.15;6.00;;;;;;;15.76;37.99;101136.88;4368871;32;34310;-87
2022/03/27 08:22:26;;;;;;;3.35;3.05;;;;;;;16.07;37.90;101140.19;4356378;32;34655;-86
2022/03/27 08:25:12;;;;;;;7.20;3.78;;;;;;;16.36;37.14;101131.06;4370002;32;35636;-81
2022/03/27 08:27:43;;;;;;;4.10;3.75;;;;;;;16.26;36.83;101134.75;4381983;32;33964;-84
2022/03/27 08:30:15;;;;;;;8.73;3.90;;;;;;;16.17;36.79;101135.63;4357348;32;34124;-87
2022/03/27 08:32:47;;;;;;;3.50;3.03;;;;;;;16.10;37.82;101129.16;4365884;32;32805;-81
2022/03/27 08:35:57;;;;;;;2.92;2.72;;;;;;;16.26;37.23;101130.19;4357962;32;35565;-84
2022/03/27 08:38:54;;;;;;;4.93;3.72;;;;;;;15.19;39.07;101142.28;4366028;32;32908;-85
2022/03/27 08:41:24;;;;;;;3.42;3.08;;;;;;;15.84;38.06;101128.09;4367184;32;33190;-84
2022/03/27 08:44:12;;;;;;;;;;;;;;;16.22;37.43;101142.25;4369129;32;32914;-87
2022/03/27 08:47:01;;;;;;;3.83;3.53;;;;;;;16.56;37.11;101132.66;4348939;32;34641;-89
2022/03/27 08:49:47;;;;;;;7.60;4.12;;;;;;;16.74;36.82;101129.97;4357402;32;33667;-86
2022/03/27 08:52:34;;;;;;;3.22;3.03;;;;;;;17.00;36.33;101131.75;4380539;32;32472;-85
2022/03/27 08:55:34;;;;;;;3.83;3.10;;;;;;;17.29;37.26;101132.41;4366671;32;33711;-84
2022/03/27 08:58:38;;;;;;;6.43;3.87;;;;;;;17.08;36.48;101125.63;4380585;32;36260;-88
2022/03/27 09:01:26;;;;;;;4.15;3.72;;;;;;;17.03;36.88;101134.16;4349993;32;33086;-86
2022/03/27 09:04:19;;;;;;;12.82;4.20;;;;;;;16.76;36.19;101138.72;4362651;32;33095;-88
2022/03/27 09:07:04;;;;;;;4.87;4.43;;;;;;;16.85;36.13;101136.00;4372267;32;33579;-85
2022/03/27 09:09:52;;;;;;;5.22;2.87;;;;;;;17.05;35.83;101137.53;4369457;32;35637;-85
2022/03/27 09:12:20;;;;;;;;;;;;;;;16.53;36.25;101146.34;4357988;32;34301;-86
2022/03/27 09:15:09;;;;;;;10.35;4.35;;;;;;;17.11;35.17;101141.47;4372869;32;32291;-84
2022/03/27 09:18:09;;;;;;;16.50;4.25;;;;;;;17.21;35.00;101140.38;4371688;32;34248;-87
2022/03/27 09:20:57;;;;;;;3.08;2.85;;;;;;;16.62;36.71;101147.31;4370413;32;33577;-85
2022/03/27 09:23:39;;;;;;;4.10;3.22;;;;;;;16.92;36.14;101138.91;4372525;32;34451;-82
2022/03/27 09:26:32;;;;;;;8.88;2.67;;;;;;;16.63;36.33;101147.16;4384079;32;33906;-84
2022/03/27 09:29:10;;;;;;;5.37;3.15;;;;;;;16.66;36.23;101146.88;4370556;32;33888;-84
2022/03/27 09:31:56;;;;;;;5.50;4.85;;;;;;;17.07;35.71;101148.97;4371493;32;35698;-84
2022/03/27 09:34:29;;;;;;;4.93;4.30;;;;;;;17.01;35.91;101138.84;4357342;32;34134;-82
2022/03/27 09:37:01;;;;;;;6.35;3.83;;;;;;;17.05;35.64;101134.00;4371761;32;33431;-82
2022/03/27 09:39:33;;;;;;;19.50;5.68;;;;;;;16.99;36.28;101138.13;4358331;32;33488;-84
2022/03/27 09:42:38;;;;;;;7.45;4.25;;;;;;;17.39;35.21;101135.03;4374246;32;35092;-83
2022/03/27 09:45:18;;;;;;;8.80;3.35;;;;;;;17.10;36.10;101143.31;4370728;32;34411;-83
2022/03/27 09:48:07;;;;;;;4.30;3.17;;;;;;;17.43;34.54;101131.87;4371278;32;33069;-83
2022/03/27 09:50:47;;;;;;;13.27;4.82;;;;;;;17.05;35.87;101132.16;4372170;32;33901;-88
2022/03/27 09:53:32;;;;;;;4.40;4.10;;;;;;;17.25;34.41;101130.19;4348985;32;34231;-88
2022/03/27 09:56:03;;;;;;;6.05;5.30;;;;;;;17.50;34.69;101141.00;4371152;32;34803;-84
2022/03/27 09:58:36;;;;;;;7.30;4.05;;;;;;;17.16;34.67;101133.78;4370779;32;33800;-85
2022/03/27 10:01:24;;;;;;;6.60;4.35;;;;;;;17.45;34.18;101129.03;4369132;32;33198;-85
2022/03/27 10:04:03;;;;;;;3.25;3.05;;;;;;;17.35;34.64;101130.94;4356718;32;34727;-84
2022/03/27 10:06:50;;;;;;;;;;;;;;;17.51;34.09;101129.25;4371883;32;34521;-83
2022/03/27 10:09:37;;;;;;;4.00;3.55;;;;;;;17.17;34.81;101132.78;4370836;32;33585;-85
2022/03/27 10:12:14;;;;;;;5.78;4.47;;;;;;;17.29;35.29;101126.16;4369893;32;34631;-86
2022/03/27 10:14:57;;;;;;;4.80;3.62;;;;;;;17.94;33.37;101115.75;4357234;32;34877;-87
2022/03/27 10:17:31;;;;;;;4.12;3.70;;;;;;;17.78;33.90;101121.03;4382618;32;35200;-86
2022/03/27 10:20:13;;;;;;;9.30;4.15;;;;;;;17.62;33.22;101121.78;4369358;32;32849;-85
2022/03/27 10:23:01;;;;;;;3.75;3.45;;;;;;;18.23;32.98;101124.34;4367970;32;34616;-84
2022/03/27 10:25:35;;;;;;;;;;;;;;;18.36;32.40;101122.91;4358366;32;33708;-87
2022/03/27 10:28:04;;;;;;;4.05;3.33;;;;;;;18.61;31.94;101123.84;4368805;32;34156;-87
2022/03/27 10:30:41;;;;;;;7.50;4.60;;;;;;;18.68;31.88;101138.34;4369946;32;33339;-85
2022/03/27 10:33:10;;;;;;;12.60;3.47;;;;;;;18.32;31.42;101124.22;4357006;32;33170;-88
2022/03/27 10:36:19;;;;;;;6.00;4.18;;;;;;;18.66;31.40;101118.78;4373417;32;35570;-85
2022/03/27 10:39:25;;;;;;;5.43;3.90;;;;;;;18.56;30.98;101118.09;4356475;32;34394;-85
2022/03/27 10:42:20;;;;;;;4.53;4.10;;;;;;;18.73;30.80;101122.53;4366684;32;31961;-82
2022/03/27 10:45:13;;;;;;;6.45;4.10;;;;;;;18.66;30.68;101125.03;4360509;32;31736;-84
2022/03/27 10:48:18;;;;;;;8.88;3.72;;;;;;;18.91;30.50;101118.72;4358616;32;35450;-88
2022/03/27 10:50:52;;;;;;;10.07;2.57;;;;;;;18.88;31.15;101123.59;4370390;32;34450;-85
2022/03/27 10:53:26;;;;;;;5.18;4.45;;;;;;;18.94;31.62;101117.50;4371823;32;33860;-83
2022/03/27 10:55:57;;;;;;;6.87;3.92;;;;;;;18.94;31.03;101123.75;4357865;32;35472;-83
2022/03/27 10:58:38;;;;;;;3.78;3.47;;;;;;;18.94;31.19;101118.37;4382163;32;34891;-83
2022/03/27 11:01:22;;;;;;;6.60;4.57;;;;;;;19.16;30.57;101114.19;4367240;32;33610;-88
2022/03/27 11:04:11;;;;;;;5.37;4.07;;;;;;;19.15;30.33;101107.94;4372378;32;34240;-82
2022/03/27 11:07:17;;;;;;;6.75;4.50;;;;;;;19.43;30.10;101095.84;4371527;32;34771;-82
2022/03/27 11:10:02;;;;;;;6.25;3.87;;;;;;;19.55;28.65;101089.06;4290044;32;2956328;-83
2022/03/27 11:12:31;;;;;;;4.93;4.45;;;;;;;19.85;29.32;101101.00;4369403;32;34365;-85
2022/03/27 11:15:19;;;;;;;5.37;4.80;;;;;;;20.15;28.59;101097.56;4368719;32;33278;-83
2022/03/27 11:18:11;;;;;;;4.12;2.58;;;;;;;20.13;28.15;101095.06;4358719;32;34040;-82
2022/03/27 11:20:46;;;;;;;3.92;3.47;;;;;;;20.47;28.07;101089.34;4368956;32;34372;-82
2022/03/27 11:23:24;;;;;;;4.93;4.40;;;;;;;20.60;27.93;101091.28;4355398;32;33828;-84
2022/03/27 11:25:54;;;;;;;3.95;3.30;;;;;;;20.96;28.00;101092.44;4368786;32;32273;-83
2022/03/27 11:28:22;;;;;;;6.78;4.35;;;;;;;21.41;27.32;101097.84;4356764;32;34048;-82
2022/03/27 11:30:50;;;;;;;7.30;4.40;;;;;;;20.65;27.17;101091.63;4355899;32;34485;-87
2022/03/27 11:33:30;;;;;;;6.65;4.97;;;;;;;20.63;27.86;101080.13;4382544;32;35073;-83
2022/03/27 11:36:14;;;;;;;4.05;3.75;;;;;;;20.97;27.88;101077.91;4357023;32;33799;-82
2022/03/27 11:38:52;;;;;;;5.37;4.68;;;;;;;21.53;26.52;101072.00;4368754;32;33643;-84
2022/03/27 11:41:32;;;;;;;5.32;3.60;;;;;;;21.50;27.24;101069.69;4369865;32;34253;-82
2022/03/27 11:47:33;;;;;;;6.80;4.18;;;;;;;21.78;27.07;101062.66;4382340;32;33074;-82
2022/03/27 11:50:03;;;;;;;12.48;4.05;;;;;;;21.81;26.73;101064.16;4369066;32;35082;-86
2022/03/27 11:52:51;;;;;;;5.20;3.47;;;;;;;21.13;26.65;101061.56;4359862;32;34060;-84
2022/03/27 11:55:19;;;;;;;6.35;4.10;;;;;;;21.35;26.11;101062.56;4369103;32;34159;-84
2022/03/27 11:57:52;;;;;;;3.72;3.42;;;;;;;21.25;27.10;101051.97;4370025;32;34511;-83
2022/03/27 12:00:32;;;;;;;9.48;3.92;;;;;;;21.61;26.45;101054.88;4382638;32;33483;-85
2022/03/27 12:03:24;;;;;;;3.03;2.65;;;;;;;21.77;26.58;101046.56;4370646;32;35683;-85
2022/03/27 12:05:54;;;;;;;4.78;3.40;;;;;;;22.63;23.84;101045.69;4369546;32;33918;-88
2022/03/27 12:08:44;;;;;;;4.45;3.78;;;;;;;23.37;23.66;101038.91;4358353;32;33688;-84
2022/03/27 12:11:20;;;;;;;4.53;2.97;;;;;;;24.79;22.10;101030.75;4368826;32;33398;-82
2022/03/27 12:14:07;;;;;;;4.40;3.10;;;;;;;26.03;20.64;101026.97;4358288;32;35978;-82
2022/03/27 12:16:51;;;;;;;6.35;3.95;;;;;;;25.95;20.33;101029.13;4381923;32;34929;-83
2022/03/27 12:19:22;;;;;;;5.97;3.55;;;;;;;26.42;19.85;101026.84;4368611;32;34016;-84